Time;durP1;ratioP1;P1;durP2;ratioP2;P2;SDS_P1;SDS_P2;PMS_P1;PMS_P2;Temp;Humidity;BMP_temperature;BMP_pressure;BME280_temperature;BME280_humidity;BME280_pressure;Samples;Min_cycle;Max_cycle;Signal;HPM_P1;HPM_P2
2023/12/26 00:01:45;;;;;;;;;2.75;1.25;;;;;10.68;100.00;100376.41;4952731;28;9544;-69
2023/12/26 00:04:12;;;;;;;;;6.00;1.00;;;;;10.59;100.00;100378.47;4936920;28;10365;-69
2023/12/26 00:06:43;;;;;;;;;5.50;1.75;;;;;10.58;100.00;100367.91;4951781;28;9546;-69
2023/12/26 00:09:15;;;;;;;;;1.50;1.00;;;;;10.57;100.00;100366.25;4955585;28;9625;-69
2023/12/26 00:11:43;;;;;;;;;1.00;1.00;;;;;10.57;100.00;100363.53;4937175;28;9693;-69
2023/12/26 00:14:10;;;;;;;;;7.00;2.00;;;;;10.52;100.00;100371.41;4937898;28;9742;-68
2023/12/26 00:16:40;;;;;;;;;2.75;1.50;;;;;10.50;100.00;100368.13;4952186;28;9541;-69
2023/12/26 00:19:06;;;;;;;;;1.00;1.00;;;;;10.52;100.00;100372.25;4953910;28;9761;-70
2023/12/26 00:21:33;;;;;;;;;2.75;0.00;;;;;10.47;100.00;100366.66;4937812;28;9606;-68
2023/12/26 00:23:59;;;;;;;;;2.25;1.00;;;;;10.49;100.00;100366.44;4954823;28;9571;-68
2023/12/26 00:26:26;;;;;;;;;0.25;0.25;;;;;10.52;100.00;100371.41;4954876;28;9679;-70
2023/12/26 00:28:57;;;;;;;;;1.50;1.00;;;;;10.56;100.00;100378.88;4953830;28;9664;-69
2023/12/26 00:31:23;;;;;;;;;0.50;0.50;;;;;10.51;100.00;100370.59;4952276;28;9632;-68
2023/12/26 00:33:50;;;;;;;;;0.25;0.25;;;;;10.54;100.00;100364.81;4951361;28;9524;-69
2023/12/26 00:36:18;;;;;;;;;2.00;1.00;;;;;10.53;100.00;100356.91;4937147;28;9557;-68
2023/12/26 00:38:45;;;;;;;;;1.75;1.00;;;;;10.59;100.00;100365.00;4934945;28;9781;-69
2023/12/26 00:41:16;;;;;;;;;3.00;1.00;;;;;10.61;100.00;100365.66;4935568;28;9505;-68
2023/12/26 00:43:42;;;;;;;;;1.50;0.75;;;;;10.59;100.00;100350.72;4952645;28;9725;-70
2023/12/26 00:46:09;;;;;;;;;6.00;1.00;;;;;10.51;100.00;100351.75;4937129;28;9570;-69
2023/12/26 00:48:36;;;;;;;;;0.75;0.75;;;;;10.50;100.00;100350.09;4954423;28;9605;-69
2023/12/26 00:51:03;;;;;;;;;1.75;1.00;;;;;10.48;100.00;100359.41;4954680;28;9627;-68
2023/12/26 00:53:30;;;;;;;;;0.75;0.75;;;;;10.51;100.00;100357.13;4931812;28;9750;-67
2023/12/26 00:55:56;;;;;;;;;2.00;0.75;;;;;10.50;100.00;100366.25;4935173;28;9566;-68
2023/12/26 00:58:23;;;;;;;;;3.00;1.00;;;;;10.51;100.00;100370.59;4954138;28;9645;-69
2023/12/26 01:00:49;;;;;;;;;3.00;1.00;;;;;10.52;100.00;100363.34;4936952;28;9768;-69
2023/12/26 01:03:16;;;;;;;;;1.00;1.00;;;;;10.57;100.00;100372.47;4953137;28;9653;-70
2023/12/26 01:05:42;;;;;;;;;2.50;1.25;;;;;10.58;100.00;100370.59;4951386;28;9711;-70
2023/12/26 01:08:11;;;;;;;;;5.00;1.50;;;;;10.59;100.00;100383.03;4952757;28;9727;-69
2023/12/26 01:10:38;;;;;;;;;3.25;2.00;;;;;10.62;100.00;100394.22;4952078;28;9812;-69
2023/12/26 01:13:05;;;;;;;;;3.50;1.50;;;;;10.61;100.00;100397.94;4938831;28;9631;-69
2023/12/26 01:15:32;;;;;;;;;3.00;2.00;;;;;10.67;100.00;100388.22;4932543;28;9573;-69
2023/12/26 01:17:59;;;;;;;;;2.50;0.75;;;;;10.60;100.00;100388.19;4928636;28;9783;-69
2023/12/26 01:20:25;;;;;;;;;0.75;0.75;;;;;10.57;100.00;100398.53;4959986;28;9552;-69
2023/12/26 01:22:52;;;;;;;;;1.50;1.00;;;;;10.54;100.00;100396.28;4940144;28;9640;-69
2023/12/26 01:25:20;;;;;;;;;2.25;1.00;;;;;10.53;100.00;100405.34;4939036;28;9717;-69
2023/12/26 01:27:47;;;;;;;;;2.50;1.00;;;;;10.52;100.00;100399.16;4936763;28;9590;-69
2023/12/26 01:30:14;;;;;;;;;1.50;1.25;;;;;10.55;100.00;100406.81;4953572;28;9711;-68
2023/12/26 01:32:41;;;;;;;;;7.50;1.00;;;;;10.55;100.00;100406.00;4953378;28;9630;-70
2023/12/26 01:35:07;;;;;;;;;1.00;1.00;;;;;10.54;100.00;100401.66;4950711;28;9571;-69
2023/12/26 01:37:34;;;;;;;;;2.75;2.00;;;;;10.55;100.00;100412.22;4952447;28;9639;-69
2023/12/26 01:40:01;;;;;;;;;2.25;1.00;;;;;10.59;100.00;100412.63;4960800;28;9527;-69
2023/12/26 01:42:28;;;;;;;;;0.00;0.00;;;;;10.55;100.00;100411.38;4942485;28;10294;-68
2023/12/26 01:44:54;;;;;;;;;0.75;0.50;;;;;10.58;100.00;100417.19;4963818;28;9673;-69
2023/12/26 01:47:21;;;;;;;;;3.00;1.00;;;;;10.56;100.00;100427.31;4941625;28;9563;-69
2023/12/26 01:49:48;;;;;;;;;2.00;1.00;;;;;10.63;100.00;100430.03;4953762;28;9689;-68
2023/12/26 01:52:20;;;;;;;;;1.00;1.00;;;;;10.61;100.00;100443.69;4936148;28;9694;-68
2023/12/26 01:54:47;;;;;;;;;0.50;0.50;;;;;10.63;100.00;100438.09;4928725;28;9786;-69
2023/12/26 01:57:13;;;;;;;;;2.75;1.50;;;;;10.64;100.00;100442.44;4952512;28;9721;-68
2023/12/26 01:59:42;;;;;;;;;2.00;2.00;;;;;10.61;100.00;100438.31;4943039;28;10430;-69
2023/12/26 02:02:09;;;;;;;;;1.50;1.00;;;;;10.61;100.00;100446.38;4968014;28;9674;-69
2023/12/26 02:04:37;;;;;;;;;1.50;0.75;;;;;10.55;100.00;100441.81;4934706;28;9769;-69
2023/12/26 02:07:06;;;;;;;;;1.00;1.00;;;;;10.57;100.00;100439.75;4956134;28;10292;-68
2023/12/26 02:09:34;;;;;;;;;4.25;1.50;;;;;10.50;100.00;100457.75;4954797;28;9625;-69
2023/12/26 02:12:02;;;;;;;;;0.00;0.00;;;;;10.55;100.00;100467.91;4934493;28;10529;-68
2023/12/26 02:14:29;;;;;;;;;4.00;1.00;;;;;10.49;100.00;100468.69;4941691;28;9648;-69
2023/12/26 02:16:57;;;;;;;;;1.00;1.00;;;;;10.47;100.00;100484.22;4944707;28;9632;-69
2023/12/26 02:19:24;;;;;;;;;1.75;1.00;;;;;10.39;100.00;100486.06;4949901;28;9719;-69
2023/12/26 02:21:51;;;;;;;;;0.00;0.00;;;;;10.40;100.00;100498.47;4940906;28;9790;-69
2023/12/26 02:24:18;;;;;;;;;2.00;1.00;;;;;10.34;100.00;100499.28;4950490;28;9708;-68
2023/12/26 02:26:44;;;;;;;;;1.25;0.75;;;;;10.38;100.00;100499.72;4931378;28;9738;-69
2023/12/26 02:29:13;;;;;;;;;1.00;1.00;;;;;10.32;100.00;100497.81;4951876;28;9711;-69
2023/12/26 02:31:40;;;;;;;;;2.25;1.00;;;;;10.27;100.00;100519.97;4935825;28;9732;-69
2023/12/26 02:34:07;;;;;;;;;1.00;1.00;;;;;10.30;100.00;100500.72;4952035;28;9649;-68
2023/12/26 02:36:34;;;;;;;;;0.75;0.00;;;;;10.39;100.00;100514.84;4918562;28;9728;-69
2023/12/26 02:39:01;;;;;;;;;3.00;1.25;;;;;10.38;100.00;100502.41;4933716;28;9720;-68
2023/12/26 02:41:28;;;;;;;;;1.00;0.00;;;;;10.47;100.00;100521.91;4932014;29;9649;-69
2023/12/26 02:43:55;;;;;;;;;3.00;0.75;;;;;10.46;100.00;100522.94;4933314;29;9583;-69
2023/12/26 02:46:21;;;;;;;;;0.00;0.00;;;;;10.44;100.00;100515.06;4928183;28;9750;-69
2023/12/26 02:48:48;;;;;;;;;0.75;0.75;;;;;10.45;100.00;100523.94;4935342;28;9667;-69
2023/12/26 02:51:15;;;;;;;;;2.00;1.00;;;;;10.42;100.00;100524.38;4933632;28;9782;-69
2023/12/26 02:53:42;;;;;;;;;1.00;1.00;;;;;10.32;100.00;100530.09;4932855;28;9704;-69
2023/12/26 02:56:09;;;;;;;;;0.75;0.75;;;;;10.25;100.00;100538.16;4934540;28;9711;-68
2023/12/26 02:58:36;;;;;;;;;0.00;0.00;;;;;10.25;100.00;100546.25;4952449;28;9679;-68
2023/12/26 03:01:03;;;;;;;;;0.75;0.00;;;;;10.30;100.00;100551.03;4950207;28;9835;-68
2023/12/26 03:03:29;;;;;;;;;0.00;0.00;;;;;10.33;99.53;100547.91;4934520;28;10598;-68
2023/12/26 03:05:56;;;;;;;;;2.25;0.00;;;;;10.29;99.42;100557.41;4930934;29;9565;-68
2023/12/26 03:08:23;;;;;;;;;1.00;0.00;;;;;10.20;98.61;100556.72;4937631;28;9636;-68
2023/12/26 03:10:50;;;;;;;;;0.00;0.00;;;;;10.08;98.67;100572.56;4949636;28;10269;-68
2023/12/26 03:13:17;;;;;;;;;1.00;0.00;;;;;10.01;97.18;100578.97;4933241;28;9650;-68
2023/12/26 03:15:43;;;;;;;;;0.00;0.00;;;;;9.97;95.94;100585.75;4934890;28;9523;-68
2023/12/26 03:18:10;;;;;;;;;0.00;0.00;;;;;9.93;94.68;100585.31;4935097;28;9699;-68
2023/12/26 03:20:37;;;;;;;;;0.50;0.50;;;;;9.90;93.40;100577.63;4950028;29;9763;-68
2023/12/26 03:23:04;;;;;;;;;0.00;0.00;;;;;9.91;91.90;100568.53;4951263;28;9760;-68
2023/12/26 03:25:30;;;;;;;;;0.00;0.00;;;;;9.83;90.92;100582.13;4951051;29;10478;-68
2023/12/26 03:27:57;;;;;;;;;0.00;0.00;;;;;9.73;89.11;100590.53;4934362;29;9630;-68
2023/12/26 03:30:23;;;;;;;;;0.00;0.00;;;;;9.71;88.84;100595.28;4934951;29;9696;-68
2023/12/26 03:32:50;;;;;;;;;0.00;0.00;;;;;9.70;88.74;100601.69;4934767;29;9783;-68
2023/12/26 03:35:17;;;;;;;;;1.00;0.00;;;;;9.75;88.32;100603.78;4931999;29;9889;-68
2023/12/26 03:37:44;;;;;;;;;0.00;0.00;;;;;9.79;87.56;100599.69;4933925;28;9860;-68
2023/12/26 03:40:11;;;;;;;;;0.00;0.00;;;;;9.73;86.85;100597.78;4935896;28;9950;-67
2023/12/26 03:42:38;;;;;;;;;0.00;0.00;;;;;9.72;86.37;100598.78;4936168;28;10470;-68
2023/12/26 03:45:05;;;;;;;;;2.50;0.00;;;;;9.70;86.07;100607.06;4938503;28;9706;-68
2023/12/26 03:47:31;;;;;;;;;0.50;0.50;;;;;9.65;85.07;100617.56;4954308;28;10134;-67
2023/12/26 03:49:58;;;;;;;;;0.00;0.00;;;;;9.65;84.41;100613.03;4938460;28;9703;-68
2023/12/26 03:52:24;;;;;;;;;0.00;0.00;;;;;9.70;84.57;100616.97;4949395;28;9932;-69
2023/12/26 03:54:52;;;;;;;;;0.25;0.25;;;;;9.77;84.10;100624.06;4932670;28;9850;-67
2023/12/26 03:57:19;;;;;;;;;0.00;0.00;;;;;9.81;84.65;100617.28;4937622;28;9855;-68
2023/12/26 03:59:45;;;;;;;;;0.00;0.00;;;;;9.83;84.21;100628.66;4955235;28;9853;-68
2023/12/26 04:02:12;;;;;;;;;2.50;0.50;;;;;9.77;84.71;100621.38;4937245;28;9767;-68
2023/12/26 04:04:38;;;;;;;;;0.00;0.00;;;;;9.75;84.77;100620.72;4937953;28;9797;-68
2023/12/26 04:07:05;;;;;;;;;0.75;0.75;;;;;9.75;85.82;100618.03;4954134;28;9978;-67
2023/12/26 04:09:32;;;;;;;;;0.00;0.00;;;;;9.75;86.76;100609.97;4930822;28;9869;-67
2023/12/26 04:11:58;;;;;;;;;0.00;0.00;;;;;9.70;87.16;100614.28;4961883;28;9779;-67
2023/12/26 04:14:25;;;;;;;;;0.00;0.00;;;;;9.68;87.68;100624.38;4936463;28;9806;-68
2023/12/26 04:16:52;;;;;;;;;2.00;0.00;;;;;9.71;88.67;100626.69;4933684;28;9792;-67
2023/12/26 04:19:18;;;;;;;;;0.50;0.50;;;;;9.63;89.02;100633.03;4935339;28;10429;-69
2023/12/26 04:21:45;;;;;;;;;0.25;0.25;;;;;9.57;89.24;100636.50;4950228;28;9856;-68
2023/12/26 04:24:12;;;;;;;;;0.50;0.50;;;;;9.54;89.97;100653.00;4936934;28;9892;-68
2023/12/26 04:26:39;;;;;;;;;1.00;1.00;;;;;9.48;90.27;100653.75;4937547;28;9866;-67
2023/12/26 04:29:05;;;;;;;;;1.75;0.00;;;;;9.45;90.06;100654.16;4955493;28;9925;-66
2023/12/26 04:31:32;;;;;;;;;0.00;0.00;;;;;9.43;89.44;100656.19;4937420;28;9815;-70
2023/12/26 04:33:58;;;;;;;;;0.50;0.50;;;;;9.43;89.18;100658.88;4935710;28;9791;-71
2023/12/26 04:36:25;;;;;;;;;1.00;0.00;;;;;9.46;88.70;100669.25;4954958;28;9951;-68
2023/12/26 04:38:52;;;;;;;;;2.75;1.00;;;;;9.41;88.18;100678.72;4950461;29;9876;-66
2023/12/26 04:41:18;;;;;;;;;1.00;1.00;;;;;9.37;88.20;100680.13;4918644;29;9870;-66
2023/12/26 04:43:47;;;;;;;;;0.50;0.50;;;;;9.33;87.41;100689.59;4935500;29;9782;-66
2023/12/26 04:46:20;;;;;;;;;0.25;0.00;;;;;9.32;87.58;100679.03;4918232;28;9933;-66
2023/12/26 04:48:48;;;;;;;;;0.75;0.75;;;;;9.34;87.33;100682.34;4932650;28;10036;-68
2023/12/26 04:51:18;;;;;;;;;1.00;1.00;;;;;9.33;86.94;100686.91;4937311;28;10667;-68
2023/12/26 04:53:49;;;;;;;;;1.25;1.25;;;;;9.31;86.19;100691.63;4937298;28;10015;-66
2023/12/26 04:56:17;;;;;;;;;2.00;0.00;;;;;9.25;85.66;100696.94;4936918;28;9958;-66
2023/12/26 04:58:45;;;;;;;;;0.50;0.25;;;;;9.23;84.86;100699.78;4937168;28;9860;-66
2023/12/26 05:01:12;;;;;;;;;1.25;0.00;;;;;9.26;85.50;100707.47;4935191;28;9929;-66
2023/12/26 05:03:39;;;;;;;;;5.00;1.00;;;;;9.28;85.50;100710.81;4931974;28;10279;-68
2023/12/26 05:06:06;;;;;;;;;1.75;0.00;;;;;9.29;85.26;100709.78;4934005;28;9866;-66
2023/12/26 05:08:33;;;;;;;;;1.00;0.00;;;;;9.28;85.23;100713.50;4952957;28;9734;-68
2023/12/26 05:10:59;;;;;;;;;1.00;1.00;;;;;9.24;85.25;100717.59;4932418;28;9693;-67
2023/12/26 05:13:26;;;;;;;;;0.00;0.00;;;;;9.26;85.05;100718.22;4951137;28;9880;-66
2023/12/26 05:15:52;;;;;;;;;1.50;0.00;;;;;9.26;85.03;100726.28;4951339;28;10052;-66
2023/12/26 05:18:19;;;;;;;;;1.00;1.00;;;;;9.30;85.05;100732.09;4936900;28;9853;-67
2023/12/26 05:20:45;;;;;;;;;1.00;1.00;;;;;9.26;85.08;100737.03;4952585;28;9934;-68
2023/12/26 05:23:12;;;;;;;;;0.75;0.75;;;;;9.18;84.83;100738.97;4924166;29;9941;-66
2023/12/26 05:25:38;;;;;;;;;1.25;0.75;;;;;9.13;84.45;100748.44;4934659;29;10032;-66
2023/12/26 05:28:06;;;;;;;;;1.00;0.00;;;;;9.05;83.46;100751.22;4918659;28;10852;-70
2023/12/26 05:30:33;;;;;;;;;1.25;1.25;;;;;9.10;84.31;100753.34;4919761;28;9977;-66
2023/12/26 05:33:00;;;;;;;;;0.75;0.00;;;;;9.12;83.72;100751.31;4917682;29;10062;-67
2023/12/26 05:35:27;;;;;;;;;0.75;0.00;;;;;9.12;83.88;100759.38;4949484;28;9917;-66
2023/12/26 05:37:54;;;;;;;;;1.75;1.75;;;;;9.07;82.92;100759.91;4951897;28;10098;-66
2023/12/26 05:40:20;;;;;;;;;0.00;0.00;;;;;9.14;82.93;100768.88;4949620;28;10054;-66
2023/12/26 05:42:47;;;;;;;;;1.50;0.50;;;;;9.13;82.55;100771.78;4951437;28;10115;-66
2023/12/26 05:45:14;;;;;;;;;1.00;0.00;;;;;9.10;82.67;100774.81;4960120;28;10671;-66
2023/12/26 05:47:41;;;;;;;;;2.00;0.00;;;;;9.13;82.73;100775.28;4936926;28;9878;-67
2023/12/26 05:50:08;;;;;;;;;2.00;0.00;;;;;9.16;82.89;100792.91;4952373;28;9883;-67
2023/12/26 05:52:35;;;;;;;;;2.25;1.00;;;;;9.08;82.56;100785.75;4936313;28;10015;-66
2023/12/26 05:55:02;;;;;;;;;0.00;0.00;;;;;9.06;82.70;100801.22;4934049;28;10097;-67
2023/12/26 05:57:28;;;;;;;;;1.00;1.00;;;;;9.13;82.58;100807.50;4935992;28;10102;-69
2023/12/26 05:59:55;;;;;;;;;0.75;0.00;;;;;9.15;83.04;100800.13;4953107;28;10023;-68
2023/12/26 06:02:21;;;;;;;;;1.00;1.00;;;;;9.10;82.47;100809.72;4935156;28;10028;-67
2023/12/26 06:04:49;;;;;;;;;0.25;0.00;;;;;9.10;82.25;100813.25;4932080;28;10103;-67
2023/12/26 06:07:16;;;;;;;;;0.00;0.00;;;;;8.99;82.37;100810.19;4962995;28;10035;-66
2023/12/26 06:09:43;;;;;;;;;3.00;1.25;;;;;9.01;81.62;100824.28;4939016;28;9943;-67
2023/12/26 06:12:10;;;;;;;;;1.25;0.50;;;;;9.00;82.23;100819.94;4942660;28;10179;-66
2023/12/26 06:14:38;;;;;;;;;5.00;0.75;;;;;8.94;81.69;100828.72;4948519;28;10695;-66
2023/12/26 06:17:05;;;;;;;;;0.00;0.00;;;;;8.91;81.93;100828.06;4951668;28;9885;-67
2023/12/26 06:19:32;;;;;;;;;0.00;0.00;;;;;9.01;81.76;100838.53;4919930;28;10126;-67
2023/12/26 06:21:59;;;;;;;;;0.25;0.00;;;;;9.06;82.04;100835.28;4950879;28;9935;-67
2023/12/26 06:24:27;;;;;;;;;1.75;1.00;;;;;9.03;81.82;100832.97;4919707;28;9952;-67
2023/12/26 06:26:54;;;;;;;;;1.00;1.00;;;;;8.90;81.62;100834.44;4934080;28;10010;-67
2023/12/26 06:29:20;;;;;;;;;0.75;0.75;;;;;8.93;81.50;100838.63;4948117;28;9986;-66
2023/12/26 06:31:47;;;;;;;;;0.00;0.00;;;;;8.95;81.50;100847.31;4950775;28;10046;-69
2023/12/26 06:34:14;;;;;;;;;6.25;1.00;;;;;8.96;81.47;100850.84;4934741;28;10694;-67
2023/12/26 06:36:40;;;;;;;;;1.00;0.25;;;;;8.99;81.24;100864.72;4935234;28;10115;-67
2023/12/26 06:39:07;;;;;;;;;0.00;0.00;;;;;8.96;81.83;100872.31;4935372;28;10140;-66
2023/12/26 06:41:33;;;;;;;;;2.25;0.00;;;;;8.83;81.15;100863.06;4935624;28;10033;-69
2023/12/26 06:44:00;;;;;;;;;1.00;1.00;;;;;8.80;81.30;100865.25;4934602;28;10224;-67
2023/12/26 06:46:27;;;;;;;;;0.75;0.75;;;;;8.76;80.76;100883.56;4950408;28;10016;-67
2023/12/26 06:48:54;;;;;;;;;1.00;1.00;;;;;8.76;80.74;100891.63;4945078;28;10117;-68
2023/12/26 06:51:20;;;;;;;;;0.50;0.50;;;;;8.82;81.11;100898.09;4954089;28;10926;-66
2023/12/26 06:53:47;;;;;;;;;0.75;0.00;;;;;8.82;81.12;100895.44;4942283;28;10110;-66
2023/12/26 06:56:14;;;;;;;;;3.25;1.00;;;;;8.81;81.13;100891.91;4950865;28;10090;-67
2023/12/26 06:58:41;;;;;;;;;1.00;1.00;;;;;8.78;80.74;100891.44;4956816;28;10121;-67
2023/12/26 07:01:09;;;;;;;;;2.50;1.50;;;;;8.83;80.76;100889.03;4931574;28;10174;-65
2023/12/26 07:03:36;;;;;;;;;1.00;0.50;;;;;8.87;80.87;100898.38;4941778;28;10266;-65
2023/12/26 07:06:02;;;;;;;;;2.00;1.00;;;;;8.79;80.64;100893.97;4934577;28;10664;-66
2023/12/26 07:08:29;;;;;;;;;0.75;0.75;;;;;8.74;81.20;100892.81;4952301;28;10252;-66
2023/12/26 07:10:56;;;;;;;;;3.75;3.00;;;;;8.77;80.51;100901.34;4951665;28;10109;-67
2023/12/26 07:13:23;;;;;;;;;2.00;1.00;;;;;8.77;81.00;100893.28;4948933;28;10201;-66
2023/12/26 07:15:51;;;;;;;;;0.25;0.25;;;;;8.68;80.78;100912.34;4949912;28;10211;-71
2023/12/26 07:18:18;;;;;;;;;1.00;1.00;;;;;8.68;80.62;100915.84;4951166;28;10183;-67
2023/12/26 07:20:45;;;;;;;;;1.75;0.00;;;;;8.67;80.39;100914.19;4952058;28;10213;-69
2023/12/26 07:23:11;;;;;;;;;2.00;0.00;;;;;8.65;80.34;100921.56;4952213;29;10239;-67
2023/12/26 07:25:38;;;;;;;;;0.50;0.00;;;;;8.62;80.95;100916.56;4934849;29;10134;-68
2023/12/26 07:28:04;;;;;;;;;1.75;1.00;;;;;8.65;80.70;100929.63;4931207;29;10105;-67
2023/12/26 07:30:31;;;;;;;;;1.25;1.00;;;;;8.73;81.20;100929.56;4933853;29;10264;-69
2023/12/26 07:32:58;;;;;;;;;1.00;1.00;;;;;8.65;80.97;100933.13;4951801;29;10345;-68
2023/12/26 07:35:25;;;;;;;;;3.00;1.00;;;;;8.64;80.35;100934.16;4934473;28;10391;-68
2023/12/26 07:37:51;;;;;;;;;0.00;0.00;;;;;8.67;80.74;100935.66;4951086;28;10223;-68
2023/12/26 07:40:18;;;;;;;;;1.25;0.50;;;;;8.70;80.43;100942.50;4951760;29;10305;-67
2023/12/26 07:42:44;;;;;;;;;2.00;0.00;;;;;8.68;80.38;100964.16;4933955;29;10181;-67
2023/12/26 07:45:11;;;;;;;;;0.50;0.00;;;;;8.73;80.35;100967.13;4949734;29;10165;-67
2023/12/26 07:47:37;;;;;;;;;1.00;0.00;;;;;8.75;80.53;100981.22;4932781;29;10252;-68
2023/12/26 07:50:04;;;;;;;;;0.50;0.50;;;;;8.81;80.78;100988.53;4947778;28;10178;-68
2023/12/26 07:52:34;;;;;;;;;0.00;0.00;;;;;8.83;80.84;100993.72;4951914;29;10175;-68
2023/12/26 07:55:01;;;;;;;;;0.00;0.00;;;;;8.82;80.64;100998.25;4951587;29;10198;-66
2023/12/26 07:57:27;;;;;;;;;0.75;0.75;;;;;8.83;80.22;101004.44;4949037;29;10264;-66
2023/12/26 07:59:54;;;;;;;;;1.00;0.50;;;;;8.70;80.18;100998.84;4959423;28;10186;-69
2023/12/26 08:02:20;;;;;;;;;3.00;1.00;;;;;8.65;80.33;101004.75;4950632;28;10875;-68
2023/12/26 08:04:47;;;;;;;;;1.50;1.50;;;;;8.69;80.56;101003.38;4960440;28;10124;-68
2023/12/26 08:07:13;;;;;;;;;0.25;0.25;;;;;8.64;80.45;101016.50;4954119;28;10063;-67
2023/12/26 08:09:39;;;;;;;;;1.75;0.50;;;;;8.64;80.54;101005.78;4951665;29;11001;-67
2023/12/26 08:12:06;;;;;;;;;0.25;0.25;;;;;8.64;80.30;101024.56;4951494;29;10222;-69
2023/12/26 08:14:32;;;;;;;;;0.00;0.00;;;;;8.69;80.00;101022.16;4951323;28;10221;-67
2023/12/26 08:16:59;;;;;;;;;3.50;1.00;;;;;8.64;79.82;101029.94;4951522;29;10206;-67
2023/12/26 08:19:25;;;;;;;;;0.50;0.50;;;;;8.76;80.03;101038.41;4951658;29;10190;-67
2023/12/26 08:21:52;;;;;;;;;0.00;0.00;;;;;8.71;80.25;101047.00;4932890;28;11382;-66
2023/12/26 08:24:19;;;;;;;;;1.00;1.00;;;;;8.68;79.95;101055.41;4949194;28;10162;-69
2023/12/26 08:26:45;;;;;;;;;1.25;0.00;;;;;8.72;80.20;101055.88;4954573;28;10143;-66
2023/12/26 08:29:12;;;;;;;;;3.00;1.50;;;;;8.70;80.26;101058.72;4953763;28;10843;-67
2023/12/26 08:31:38;;;;;;;;;1.00;1.00;;;;;8.69;79.96;101061.59;4934902;28;10264;-66
2023/12/26 08:34:05;;;;;;;;;2.00;0.00;;;;;8.71;79.73;101067.59;4936607;28;10113;-66
2023/12/26 08:36:31;;;;;;;;;0.75;0.00;;;;;8.79;80.07;101073.78;4951184;28;10897;-67
2023/12/26 08:38:58;;;;;;;;;0.50;0.25;;;;;8.80;79.45;101072.78;4958386;28;10089;-67
2023/12/26 08:41:24;;;;;;;;;1.50;0.00;;;;;8.67;79.86;101088.63;4950402;28;10172;-67
2023/12/26 08:43:50;;;;;;;;;2.25;0.75;;;;;8.71;79.81;101089.94;4960623;28;10367;-66
2023/12/26 08:46:17;;;;;;;;;1.00;1.00;;;;;8.79;80.03;101100.63;4966798;28;10328;-69
2023/12/26 08:48:44;;;;;;;;;1.50;1.00;;;;;8.81;80.00;101108.50;4951512;28;10117;-66
2023/12/26 08:51:10;;;;;;;;;0.75;0.75;;;;;8.80;79.91;101117.56;4949706;28;10153;-66
2023/12/26 08:53:37;;;;;;;;;3.00;1.50;;;;;8.83;80.28;101115.38;4949743;28;10285;-67
2023/12/26 08:56:03;;;;;;;;;1.00;1.00;;;;;8.82;80.47;101116.38;4948172;28;11067;-67
2023/12/26 08:58:32;;;;;;;;;2.00;0.25;;;;;8.79;80.32;101122.09;4945815;28;10221;-67
2023/12/26 09:01:00;;;;;;;;;1.75;1.75;;;;;8.85;80.10;101116.00;4946008;28;10174;-68
2023/12/26 09:03:28;;;;;;;;;0.75;0.75;;;;;8.83;79.93;101126.13;4943802;28;10042;-66
2023/12/26 09:05:54;;;;;;;;;0.25;0.25;;;;;8.79;79.94;101131.97;4944344;28;10838;-67
2023/12/26 09:08:21;;;;;;;;;4.50;2.75;;;;;8.81;80.01;101136.16;4927653;28;10190;-67
2023/12/26 09:10:48;;;;;;;;;2.00;1.00;;;;;8.83;80.15;101141.34;4947486;28;12000;-67
2023/12/26 09:13:16;;;;;;;;;0.25;0.25;;;;;8.84;80.24;101148.41;4948484;28;11097;-68
2023/12/26 09:15:43;;;;;;;;;2.50;0.25;;;;;8.85;79.71;101148.22;4947988;28;10209;-67
2023/12/26 09:18:10;;;;;;;;;3.00;0.00;;;;;8.89;79.62;101156.78;4939852;28;10205;-67
2023/12/26 09:20:36;;;;;;;;;1.75;0.75;;;;;8.97;79.92;101167.47;4951625;28;10157;-68
2023/12/26 09:23:03;;;;;;;;;1.75;0.25;;;;;8.94;79.18;101169.66;4962418;28;10319;-67
2023/12/26 09:25:29;;;;;;;;;1.50;0.50;;;;;9.00;79.16;101179.72;4953753;28;10113;-67
2023/12/26 09:27:56;;;;;;;;;2.75;1.00;;;;;9.04;78.93;101178.34;4953667;28;10266;-68
2023/12/26 09:30:22;;;;;;;;;5.25;0.25;;;;;9.08;79.15;101188.56;4951994;28;10114;-70
2023/12/26 09:32:49;;;;;;;;;3.00;1.00;;;;;9.08;79.28;101195.78;4935200;28;10200;-68
2023/12/26 09:35:16;;;;;;;;;1.00;1.00;;;;;9.02;79.34;101193.78;4952849;28;10027;-67
2023/12/26 09:37:42;;;;;;;;;3.75;2.00;;;;;9.13;79.03;101209.53;4932976;28;10051;-71
2023/12/26 09:40:14;;;;;;;;;3.50;1.00;;;;;9.17;78.86;101213.53;4948375;28;10097;-68
2023/12/26 09:42:41;;;;;;;;;2.75;2.00;;;;;9.24;78.81;101219.03;4953670;28;10035;-67
2023/12/26 09:45:11;;;;;;;;;1.00;1.00;;;;;9.39;79.01;101218.09;4951960;28;10064;-67
2023/12/26 09:47:42;;;;;;;;;2.00;0.75;;;;;9.43;79.02;101221.25;4936618;28;9970;-66
2023/12/26 09:50:09;;;;;;;;;0.50;0.50;;;;;9.47;78.76;101222.56;4950261;28;9938;-68
2023/12/26 09:52:38;;;;;;;;;2.00;0.00;;;;;9.50;78.03;101218.72;4959378;28;9905;-66
2023/12/26 09:55:05;;;;;;;;;2.75;2.00;;;;;9.53;77.78;101221.03;4959299;28;10028;-67
2023/12/26 09:57:31;;;;;;;;;1.25;1.25;;;;;9.52;77.53;101232.78;4961735;28;9863;-69
2023/12/26 09:59:59;;;;;;;;;0.75;0.00;;;;;9.60;77.42;101230.91;4960597;28;9896;-68
2023/12/26 10:02:25;;;;;;;;;0.00;0.00;;;;;9.54;77.15;101249.59;4952931;28;9884;-68
2023/12/26 10:04:52;;;;;;;;;0.25;0.00;;;;;9.49;76.52;101246.59;4952060;28;10039;-67
2023/12/26 10:07:19;;;;;;;;;3.00;2.25;;;;;9.45;76.60;101248.81;4949530;28;9867;-67
2023/12/26 10:09:46;;;;;;;;;1.00;1.00;;;;;9.37;76.53;101255.06;4951825;28;10111;-67
2023/12/26 10:12:12;;;;;;;;;1.00;0.00;;;;;9.34;76.49;101255.41;4953105;28;10038;-67
2023/12/26 10:14:39;;;;;;;;;0.25;0.25;;;;;9.37;76.43;101260.44;4952733;28;9941;-66
2023/12/26 10:17:06;;;;;;;;;0.75;0.75;;;;;9.43;76.70;101261.56;4952258;28;9961;-66
2023/12/26 10:19:33;;;;;;;;;5.75;3.00;;;;;9.29;76.96;101251.59;4935939;28;9940;-68
2023/12/26 10:22:02;;;;;;;;;1.00;1.00;;;;;9.21;76.17;101248.94;4948124;28;9969;-67
2023/12/26 10:24:29;;;;;;;;;3.00;1.00;;;;;9.15;76.01;101266.56;4949265;28;10655;-67
2023/12/26 10:26:55;;;;;;;;;1.00;0.25;;;;;9.21;76.10;101257.81;4935511;28;9949;-66
2023/12/26 10:29:22;;;;;;;;;0.00;0.00;;;;;9.27;75.86;101267.84;4953191;28;10103;-69
2023/12/26 10:31:48;;;;;;;;;1.75;1.00;;;;;9.26;75.86;101263.50;4952445;28;9771;-67
2023/12/26 10:34:18;;;;;;;;;1.00;1.00;;;;;9.23;75.53;101277.28;4950406;28;10000;-66
2023/12/26 10:36:48;;;;;;;;;2.25;1.00;;;;;9.21;75.40;101281.16;4951084;28;10084;-67
2023/12/26 10:39:16;;;;;;;;;6.00;1.00;;;;;9.16;75.04;101285.22;4929482;28;10027;-69
2023/12/26 10:41:47;;;;;;;;;2.25;1.25;;;;;9.25;74.78;101291.38;4951584;28;10125;-67
2023/12/26 10:44:18;;;;;;;;;1.50;1.00;;;;;9.35;75.11;101293.84;4952263;28;10057;-67
2023/12/26 10:46:45;;;;;;;;;1.00;1.00;;;;;9.34;74.79;101305.63;4934386;28;9896;-67
2023/12/26 10:49:23;;;;;;;;;1.00;0.00;;;;;9.31;74.59;101303.28;4951670;28;10155;-70
2023/12/26 10:51:58;;;;;;;;;2.50;2.00;;;;;9.30;74.29;101299.75;4934454;28;9944;-67
2023/12/26 10:54:24;;;;;;;;;0.00;0.00;;;;;9.34;74.51;101295.69;4950114;28;10806;-67
2023/12/26 10:56:52;;;;;;;;;2.25;0.00;;;;;9.29;74.31;101294.56;4946265;28;10061;-68
2023/12/26 10:59:20;;;;;;;;;2.00;1.00;;;;;9.30;74.06;101301.59;4952334;28;10778;-67
2023/12/26 11:01:47;;;;;;;;;4.75;1.75;;;;;9.35;73.47;101307.28;4951392;28;10095;-68
2023/12/26 11:04:15;;;;;;;;;0.00;0.00;;;;;9.31;73.28;101312.16;4935173;28;10198;-66
2023/12/26 11:06:42;;;;;;;;;2.00;0.00;;;;;9.28;72.54;101306.31;4950401;28;10102;-67
2023/12/26 11:09:09;;;;;;;;;0.00;0.00;;;;;9.32;72.64;101323.78;4952167;28;9937;-69
2023/12/26 11:11:38;;;;;;;;;1.00;1.00;;;;;9.33;72.61;101318.22;4932631;28;9936;-67
2023/12/26 11:14:05;;;;;;;;;0.00;0.00;;;;;9.37;72.61;101330.28;4934862;28;9941;-69
2023/12/26 11:16:34;;;;;;;;;1.75;1.00;;;;;9.43;72.64;101327.91;4950950;28;10024;-68
2023/12/26 11:19:01;;;;;;;;;3.50;0.25;;;;;9.43;73.81;101323.38;4943627;28;10007;-68
2023/12/26 11:21:29;;;;;;;;;1.75;0.50;;;;;9.34;72.80;101327.09;4934642;28;9951;-67
2023/12/26 11:23:58;;;;;;;;;1.00;1.00;;;;;9.35;72.98;101331.47;4933780;29;10056;-70
2023/12/26 11:26:27;;;;;;;;;0.75;0.75;;;;;9.41;73.69;101331.63;4932745;29;9924;-69
2023/12/26 11:28:54;;;;;;;;;1.00;1.00;;;;;9.40;73.97;101331.81;4944819;29;9981;-71
2023/12/26 11:31:20;;;;;;;;;0.50;0.50;;;;;9.39;74.08;101339.00;4934107;29;9976;-70
2023/12/26 11:33:47;;;;;;;;;1.00;1.00;;;;;9.35;74.50;101331.47;4950016;29;10113;-69